sensor_id;sensor_type;location;lat;lon;timestamp;pressure;altitude;pressure_sealevel;temperature;humidity
24996;BME280;13016;52.162;21.034;2023-03-16T00:01:04;100575.51;;;7.09;49.56
24996;BME280;13016;52.162;21.034;2023-03-16T00:03:30;100576.22;;;7.09;49.67
24996;BME280;13016;52.162;21.034;2023-03-16T00:05:55;100574.20;;;7.14;49.48
24996;BME280;13016;52.162;21.034;2023-03-16T00:08:20;100574.80;;;7.17;49.35
24996;BME280;13016;52.162;21.034;2023-03-16T00:10:47;100575.38;;;7.20;49.26
24996;BME280;13016;52.162;21.034;2023-03-16T00:13:17;100576.93;;;7.20;49.19
24996;BME280;13016;52.162;21.034;2023-03-16T00:16:12;100579.85;;;7.18;49.16
24996;BME280;13016;52.162;21.034;2023-03-16T00:18:38;100587.27;;;7.09;49.23
24996;BME280;13016;52.162;21.034;2023-03-16T00:21:04;100587.66;;;6.99;49.49
24996;BME280;13016;52.162;21.034;2023-03-16T00:23:30;100594.21;;;6.98;49.51
24996;BME280;13016;52.162;21.034;2023-03-16T00:26:04;100599.16;;;6.93;49.52
24996;BME280;13016;52.162;21.034;2023-03-16T00:28:33;100599.69;;;6.89;49.90
24996;BME280;13016;52.162;21.034;2023-03-16T00:31:23;100599.44;;;6.91;49.77
24996;BME280;13016;52.162;21.034;2023-03-16T00:33:48;100610.11;;;6.87;49.71
24996;BME280;13016;52.162;21.034;2023-03-16T00:36:14;100610.59;;;6.84;49.84
24996;BME280;13016;52.162;21.034;2023-03-16T00:38:59;100606.30;;;6.78;49.85
24996;BME280;13016;52.162;21.034;2023-03-16T00:41:26;100608.55;;;6.74;50.06
24996;BME280;13016;52.162;21.034;2023-03-16T00:43:51;100609.80;;;6.78;50.02
24996;BME280;13016;52.162;21.034;2023-03-16T00:46:17;100613.20;;;6.80;49.95
24996;BME280;13016;52.162;21.034;2023-03-16T00:48:49;100615.95;;;6.78;49.85
24996;BME280;13016;52.162;21.034;2023-03-16T00:51:20;100614.32;;;6.70;49.97
24996;BME280;13016;52.162;21.034;2023-03-16T00:53:46;100613.55;;;6.64;50.03
24996;BME280;13016;52.162;21.034;2023-03-16T00:56:12;100617.27;;;6.59;50.24
24996;BME280;13016;52.162;21.034;2023-03-16T01:01:16;100619.11;;;6.61;50.15
24996;BME280;13016;52.162;21.034;2023-03-16T01:06:23;100618.50;;;6.58;50.13
24996;BME280;13016;52.162;21.034;2023-03-16T01:08:48;100618.17;;;6.58;50.15
24996;BME280;13016;52.162;21.034;2023-03-16T01:11:20;100623.30;;;6.61;50.10
24996;BME280;13016;52.162;21.034;2023-03-16T01:13:51;100620.41;;;6.63;50.13
24996;BME280;13016;52.162;21.034;2023-03-16T01:16:37;100621.88;;;6.57;49.95
24996;BME280;13016;52.162;21.034;2023-03-16T01:19:02;100623.21;;;6.51;49.98
24996;BME280;13016;52.162;21.034;2023-03-16T01:24:09;100623.77;;;6.58;49.85
24996;BME280;13016;52.162;21.034;2023-03-16T01:26:35;100622.85;;;6.50;50.10
24996;BME280;13016;52.162;21.034;2023-03-16T01:29:06;100619.64;;;6.35;50.38
24996;BME280;13016;52.162;21.034;2023-03-16T01:31:31;100621.59;;;6.34;50.47
24996;BME280;13016;52.162;21.034;2023-03-16T01:33:56;100624.70;;;6.35;50.37
24996;BME280;13016;52.162;21.034;2023-03-16T01:39:00;100626.07;;;6.45;49.99
24996;BME280;13016;52.162;21.034;2023-03-16T01:41:26;100630.84;;;6.39;50.09
24996;BME280;13016;52.162;21.034;2023-03-16T01:43:51;100629.27;;;6.34;50.08
24996;BME280;13016;52.162;21.034;2023-03-16T01:46:20;100631.02;;;6.26;50.11
24996;BME280;13016;52.162;21.034;2023-03-16T01:51:48;100638.11;;;6.24;50.40
24996;BME280;13016;52.162;21.034;2023-03-16T01:57:06;100638.64;;;6.15;50.69
24996;BME280;13016;52.162;21.034;2023-03-16T02:02:19;100637.38;;;5.98;50.92
24996;BME280;13016;52.162;21.034;2023-03-16T02:05:01;100639.15;;;5.93;51.15
24996;BME280;13016;52.162;21.034;2023-03-16T02:07:37;100638.30;;;5.92;51.34
24996;BME280;13016;52.162;21.034;2023-03-16T02:10:13;100638.15;;;5.92;51.35
24996;BME280;13016;52.162;21.034;2023-03-16T02:12:39;100640.59;;;6.01;51.19
24996;BME280;13016;52.162;21.034;2023-03-16T02:15:04;100641.34;;;5.91;51.32
24996;BME280;13016;52.162;21.034;2023-03-16T02:17:36;100641.55;;;5.84;51.61
24996;BME280;13016;52.162;21.034;2023-03-16T02:23:20;100644.42;;;5.77;51.72
24996;BME280;13016;52.162;21.034;2023-03-16T02:26:19;100648.35;;;5.66;51.96
24996;BME280;13016;52.162;21.034;2023-03-16T02:29:05;100646.20;;;5.62;52.32
24996;BME280;13016;52.162;21.034;2023-03-16T02:31:36;100654.20;;;5.68;52.53
24996;BME280;13016;52.162;21.034;2023-03-16T02:34:02;100655.85;;;5.71;52.27
24996;BME280;13016;52.162;21.034;2023-03-16T02:36:28;100662.30;;;5.67;52.36
24996;BME280;13016;52.162;21.034;2023-03-16T02:38:54;100659.41;;;5.79;52.20
24996;BME280;13016;52.162;21.034;2023-03-16T02:41:22;100659.48;;;5.92;51.84
24996;BME280;13016;52.162;21.034;2023-03-16T02:43:59;100665.13;;;6.00;51.77
24996;BME280;13016;52.162;21.034;2023-03-16T02:46:26;100665.30;;;6.05;51.62
24996;BME280;13016;52.162;21.034;2023-03-16T02:49:04;100662.54;;;5.99;51.48
24996;BME280;13016;52.162;21.034;2023-03-16T02:51:31;100667.71;;;6.01;51.57
24996;BME280;13016;52.162;21.034;2023-03-16T02:54:02;100670.66;;;5.98;51.41
24996;BME280;13016;52.162;21.034;2023-03-16T02:56:47;100670.19;;;5.96;51.52
24996;BME280;13016;52.162;21.034;2023-03-16T02:59:12;100673.70;;;5.96;51.59
24996;BME280;13016;52.162;21.034;2023-03-16T03:01:38;100676.40;;;5.94;51.80
24996;BME280;13016;52.162;21.034;2023-03-16T03:04:16;100678.88;;;5.89;51.59
24996;BME280;13016;52.162;21.034;2023-03-16T03:06:42;100682.81;;;5.87;51.81
24996;BME280;13016;52.162;21.034;2023-03-16T03:09:10;100685.16;;;5.89;52.11
24996;BME280;13016;52.162;21.034;2023-03-16T03:11:35;100687.65;;;5.88;51.88
24996;BME280;13016;52.162;21.034;2023-03-16T03:14:00;100689.64;;;5.80;51.88
24996;BME280;13016;52.162;21.034;2023-03-16T03:16:25;100691.73;;;5.70;52.33
24996;BME280;13016;52.162;21.034;2023-03-16T03:18:51;100696.09;;;5.66;52.59
24996;BME280;13016;52.162;21.034;2023-03-16T03:21:16;100698.38;;;5.71;52.83
24996;BME280;13016;52.162;21.034;2023-03-16T03:23:41;100697.02;;;5.69;52.61
24996;BME280;13016;52.162;21.034;2023-03-16T03:26:06;100696.15;;;5.64;52.69
24996;BME280;13016;52.162;21.034;2023-03-16T03:28:32;100705.67;;;5.58;52.88
24996;BME280;13016;52.162;21.034;2023-03-16T03:30:57;100707.61;;;5.58;53.13
24996;BME280;13016;52.162;21.034;2023-03-16T03:33:22;100707.86;;;5.50;53.45
24996;BME280;13016;52.162;21.034;2023-03-16T03:35:55;100712.50;;;5.38;53.67
24996;BME280;13016;52.162;21.034;2023-03-16T03:38:21;100715.73;;;5.40;54.02
24996;BME280;13016;52.162;21.034;2023-03-16T03:43:33;100720.59;;;5.47;53.81
24996;BME280;13016;52.162;21.034;2023-03-16T03:46:22;100724.75;;;5.43;53.97
24996;BME280;13016;52.162;21.034;2023-03-16T03:48:50;100726.27;;;5.44;53.94
24996;BME280;13016;52.162;21.034;2023-03-16T03:51:15;100734.98;;;5.45;53.87
24996;BME280;13016;52.162;21.034;2023-03-16T03:53:41;100741.35;;;5.49;54.01
24996;BME280;13016;52.162;21.034;2023-03-16T03:56:06;100735.33;;;5.46;53.75
24996;BME280;13016;52.162;21.034;2023-03-16T03:58:32;100738.00;;;5.44;53.82
24996;BME280;13016;52.162;21.034;2023-03-16T04:01:08;100740.16;;;5.42;53.88
24996;BME280;13016;52.162;21.034;2023-03-16T04:03:34;100738.54;;;5.44;54.02
24996;BME280;13016;52.162;21.034;2023-03-16T04:05:59;100738.02;;;5.38;53.85
24996;BME280;13016;52.162;21.034;2023-03-16T04:08:44;100733.55;;;5.31;54.05
24996;BME280;13016;52.162;21.034;2023-03-16T04:11:17;100738.06;;;5.32;54.30
24996;BME280;13016;52.162;21.034;2023-03-16T04:13:42;100738.09;;;5.42;54.20
24996;BME280;13016;52.162;21.034;2023-03-16T04:16:08;100742.08;;;5.33;53.96
24996;BME280;13016;52.162;21.034;2023-03-16T04:18:54;100742.46;;;5.32;54.25
24996;BME280;13016;52.162;21.034;2023-03-16T04:21:21;100749.05;;;5.33;54.20
24996;BME280;13016;52.162;21.034;2023-03-16T04:23:47;100747.98;;;5.28;54.23
24996;BME280;13016;52.162;21.034;2023-03-16T04:26:13;100747.29;;;5.28;54.44
24996;BME280;13016;52.162;21.034;2023-03-16T04:28:39;100750.23;;;5.24;54.41
24996;BME280;13016;52.162;21.034;2023-03-16T04:31:06;100751.84;;;5.18;54.58
24996;BME280;13016;52.162;21.034;2023-03-16T04:33:39;100754.51;;;5.17;54.50
24996;BME280;13016;52.162;21.034;2023-03-16T04:36:25;100756.57;;;5.17;54.54
24996;BME280;13016;52.162;21.034;2023-03-16T04:38:50;100758.89;;;5.21;54.48
24996;BME280;13016;52.162;21.034;2023-03-16T04:41:36;100765.75;;;5.20;54.67
24996;BME280;13016;52.162;21.034;2023-03-16T04:44:01;100767.38;;;5.18;54.56
24996;BME280;13016;52.162;21.034;2023-03-16T04:46:27;100767.98;;;5.22;54.63
24996;BME280;13016;52.162;21.034;2023-03-16T04:48:52;100769.07;;;5.30;54.53
24996;BME280;13016;52.162;21.034;2023-03-16T04:51:18;100774.96;;;5.38;54.36
24996;BME280;13016;52.162;21.034;2023-03-16T04:53:43;100775.24;;;5.40;54.30
24996;BME280;13016;52.162;21.034;2023-03-16T04:56:09;100776.91;;;5.21;54.41
24996;BME280;13016;52.162;21.034;2023-03-16T04:58:35;100782.73;;;5.09;54.48
24996;BME280;13016;52.162;21.034;2023-03-16T05:01:00;100786.41;;;5.03;54.70
24996;BME280;13016;52.162;21.034;2023-03-16T05:03:26;100788.69;;;4.98;54.76
24996;BME280;13016;52.162;21.034;2023-03-16T05:05:51;100794.01;;;4.95;55.04
24996;BME280;13016;52.162;21.034;2023-03-16T05:08:17;100795.05;;;4.90;55.03
24996;BME280;13016;52.162;21.034;2023-03-16T05:10:55;100794.03;;;4.89;55.19
24996;BME280;13016;52.162;21.034;2023-03-16T05:13:20;100793.39;;;4.87;55.31
24996;BME280;13016;52.162;21.034;2023-03-16T05:18:25;100797.38;;;4.94;55.40
24996;BME280;13016;52.162;21.034;2023-03-16T05:20:52;100797.36;;;4.95;55.66
24996;BME280;13016;52.162;21.034;2023-03-16T05:23:28;100796.52;;;4.93;55.56
24996;BME280;13016;52.162;21.034;2023-03-16T05:31:18;100799.02;;;4.97;55.94
24996;BME280;13016;52.162;21.034;2023-03-16T05:33:47;100799.02;;;5.02;56.05
24996;BME280;13016;52.162;21.034;2023-03-16T05:36:39;100807.96;;;5.07;55.90
24996;BME280;13016;52.162;21.034;2023-03-16T05:41:48;100811.77;;;5.03;55.80
24996;BME280;13016;52.162;21.034;2023-03-16T05:48:24;100812.54;;;5.12;56.02
24996;BME280;13016;52.162;21.034;2023-03-16T05:53:33;100816.91;;;5.23;55.77
24996;BME280;13016;52.162;21.034;2023-03-16T06:01:43;100814.85;;;5.43;55.62
24996;BME280;13016;52.162;21.034;2023-03-16T06:04:50;100817.44;;;5.54;55.69
24996;BME280;13016;52.162;21.034;2023-03-16T06:20:19;100825.82;;;5.97;54.82
24996;BME280;13016;52.162;21.034;2023-03-16T06:23:27;100835.83;;;6.16;54.78
24996;BME280;13016;52.162;21.034;2023-03-16T06:26:02;100834.56;;;6.41;54.58
24996;BME280;13016;52.162;21.034;2023-03-16T06:28:43;100837.77;;;6.58;54.00
24996;BME280;13016;52.162;21.034;2023-03-16T06:36:34;100843.17;;;7.94;51.56
24996;BME280;13016;52.162;21.034;2023-03-16T06:40:21;100842.90;;;8.49;50.11
24996;BME280;13016;52.162;21.034;2023-03-16T06:45:26;100850.20;;;9.65;47.02
24996;BME280;13016;52.162;21.034;2023-03-16T06:50:30;100854.14;;;10.89;44.75
24996;BME280;13016;52.162;21.034;2023-03-16T06:55:46;100857.94;;;10.81;44.35
24996;BME280;13016;52.162;21.034;2023-03-16T06:58:19;100860.30;;;11.33;44.06
24996;BME280;13016;52.162;21.034;2023-03-16T07:00:46;100863.83;;;11.92;42.16
24996;BME280;13016;52.162;21.034;2023-03-16T07:03:17;100871.83;;;12.20;41.40
24996;BME280;13016;52.162;21.034;2023-03-16T07:05:42;100871.67;;;12.32;40.75
24996;BME280;13016;52.162;21.034;2023-03-16T07:08:10;100875.76;;;12.40;40.87
24996;BME280;13016;52.162;21.034;2023-03-16T07:10:44;100877.71;;;12.89;40.51
24996;BME280;13016;52.162;21.034;2023-03-16T07:13:20;100877.98;;;13.24;39.68
24996;BME280;13016;52.162;21.034;2023-03-16T07:18:40;100881.42;;;13.20;38.79
24996;BME280;13016;52.162;21.034;2023-03-16T07:29:31;100887.44;;;12.51;39.76
24996;BME280;13016;52.162;21.034;2023-03-16T07:32:06;100888.15;;;12.11;40.78
24996;BME280;13016;52.162;21.034;2023-03-16T07:34:33;100882.11;;;11.47;41.65
24996;BME280;13016;52.162;21.034;2023-03-16T07:37:10;100886.52;;;10.94;43.18
24996;BME280;13016;52.162;21.034;2023-03-16T07:48:16;100887.23;;;10.87;43.58
24996;BME280;13016;52.162;21.034;2023-03-16T07:52:11;100889.10;;;11.33;43.27
24996;BME280;13016;52.162;21.034;2023-03-16T08:06:08;100896.36;;;12.50;41.01
24996;BME280;13016;52.162;21.034;2023-03-16T08:08:51;100896.98;;;12.63;40.65
24996;BME280;13016;52.162;21.034;2023-03-16T08:11:17;100897.05;;;12.24;40.98
24996;BME280;13016;52.162;21.034;2023-03-16T08:13:42;100900.94;;;11.89;41.81
24996;BME280;13016;52.162;21.034;2023-03-16T08:16:07;100898.76;;;12.05;41.35
24996;BME280;13016;52.162;21.034;2023-03-16T08:18:33;100901.45;;;12.19;41.46
24996;BME280;13016;52.162;21.034;2023-03-16T08:20:58;100899.04;;;12.62;41.04
24996;BME280;13016;52.162;21.034;2023-03-16T08:23:24;100899.61;;;13.09;40.31
24996;BME280;13016;52.162;21.034;2023-03-16T08:26:01;100904.11;;;13.25;39.45
24996;BME280;13016;52.162;21.034;2023-03-16T08:31:15;100904.23;;;13.42;39.04
24996;BME280;13016;52.162;21.034;2023-03-16T08:33:45;100907.10;;;13.61;38.40
24996;BME280;13016;52.162;21.034;2023-03-16T08:36:34;100910.84;;;13.93;37.84
24996;BME280;13016;52.162;21.034;2023-03-16T08:39:04;100913.88;;;14.40;36.53
24996;BME280;13016;52.162;21.034;2023-03-16T08:41:30;100912.31;;;14.32;36.98
24996;BME280;13016;52.162;21.034;2023-03-16T08:43:55;100915.61;;;14.58;36.47
24996;BME280;13016;52.162;21.034;2023-03-16T08:46:44;100922.91;;;14.68;36.12
24996;BME280;13016;52.162;21.034;2023-03-16T08:49:09;100925.04;;;14.98;35.40
24996;BME280;13016;52.162;21.034;2023-03-16T08:51:35;100922.51;;;14.17;36.58
24996;BME280;13016;52.162;21.034;2023-03-16T08:54:00;100920.94;;;14.22;36.60
24996;BME280;13016;52.162;21.034;2023-03-16T08:59:07;100927.93;;;14.95;35.51
24996;BME280;13016;52.162;21.034;2023-03-16T09:04:07;100933.48;;;15.74;34.45
24996;BME280;13016;52.162;21.034;2023-03-16T09:06:41;100933.23;;;15.77;33.97
24996;BME280;13016;52.162;21.034;2023-03-16T09:09:07;100928.99;;;15.50;33.84
24996;BME280;13016;52.162;21.034;2023-03-16T09:11:39;100931.46;;;15.43;34.24
24996;BME280;13016;52.162;21.034;2023-03-16T09:14:04;100932.81;;;15.42;33.99
24996;BME280;13016;52.162;21.034;2023-03-16T09:16:29;100934.66;;;15.35;33.91
24996;BME280;13016;52.162;21.034;2023-03-16T09:19:03;100934.09;;;15.48;33.87
24996;BME280;13016;52.162;21.034;2023-03-16T09:21:28;100934.89;;;15.34;34.18
24996;BME280;13016;52.162;21.034;2023-03-16T09:23:54;100934.51;;;15.65;33.96
24996;BME280;13016;52.162;21.034;2023-03-16T09:26:19;100935.52;;;15.58;33.43
24996;BME280;13016;52.162;21.034;2023-03-16T09:28:44;100937.44;;;15.54;33.82
24996;BME280;13016;52.162;21.034;2023-03-16T09:31:19;100937.05;;;15.44;33.36
24996;BME280;13016;52.162;21.034;2023-03-16T09:33:44;100934.45;;;14.83;33.65
24996;BME280;13016;52.162;21.034;2023-03-16T09:36:14;100937.86;;;14.80;34.19
24996;BME280;13016;52.162;21.034;2023-03-16T09:38:48;100941.63;;;14.95;34.54
24996;BME280;13016;52.162;21.034;2023-03-16T09:44:33;100937.19;;;14.64;34.81
24996;BME280;13016;52.162;21.034;2023-03-16T09:47:03;100932.45;;;14.46;35.27
24996;BME280;13016;52.162;21.034;2023-03-16T09:49:44;100930.91;;;14.00;36.17
24996;BME280;13016;52.162;21.034;2023-03-16T09:55:15;100932.36;;;13.04;37.51
24996;BME280;13016;52.162;21.034;2023-03-16T10:05:59;100939.68;;;12.80;37.21
24996;BME280;13016;52.162;21.034;2023-03-16T10:08:38;100946.76;;;12.72;37.26
24996;BME280;13016;52.162;21.034;2023-03-16T10:19:02;100946.86;;;12.28;37.44
24996;BME280;13016;52.162;21.034;2023-03-16T10:21:39;100942.64;;;12.19;38.44
24996;BME280;13016;52.162;21.034;2023-03-16T10:29:23;100951.64;;;12.52;37.06
24996;BME280;13016;52.162;21.034;2023-03-16T10:34:22;100942.95;;;12.29;36.78
24996;BME280;13016;52.162;21.034;2023-03-16T10:37:00;100948.62;;;12.52;36.36
24996;BME280;13016;52.162;21.034;2023-03-16T10:39:36;100950.96;;;12.78;36.33
24996;BME280;13016;52.162;21.034;2023-03-16T10:42:18;100947.72;;;13.02;36.31
24996;BME280;13016;52.162;21.034;2023-03-16T10:45:16;100951.37;;;13.17;35.78
24996;BME280;13016;52.162;21.034;2023-03-16T10:48:07;100953.58;;;13.16;35.48
24996;BME280;13016;52.162;21.034;2023-03-16T10:59:12;100951.23;;;13.17;35.69
24996;BME280;13016;52.162;21.034;2023-03-16T11:01:37;100952.32;;;13.25;34.95
24996;BME280;13016;52.162;21.034;2023-03-16T11:06:53;100957.51;;;12.72;34.70
24996;BME280;13016;52.162;21.034;2023-03-16T11:11:55;100952.02;;;12.78;34.77
24996;BME280;13016;52.162;21.034;2023-03-16T11:14:27;100952.60;;;12.88;34.75
24996;BME280;13016;52.162;21.034;2023-03-16T11:17:20;100950.09;;;12.57;34.98
24996;BME280;13016;52.162;21.034;2023-03-16T11:19:57;100947.80;;;12.39;35.41
24996;BME280;13016;52.162;21.034;2023-03-16T11:33:09;100942.98;;;12.43;36.64
24996;BME280;13016;52.162;21.034;2023-03-16T11:35:38;100941.80;;;12.45;36.76
24996;BME280;13016;52.162;21.034;2023-03-16T11:43:46;100940.09;;;12.79;36.77
24996;BME280;13016;52.162;21.034;2023-03-16T11:46:23;100940.16;;;12.66;37.42
24996;BME280;13016;52.162;21.034;2023-03-16T11:49:15;100937.91;;;12.60;37.24
24996;BME280;13016;52.162;21.034;2023-03-16T12:00:02;100947.37;;;12.38;37.19
24996;BME280;13016;52.162;21.034;2023-03-16T12:02:32;100943.73;;;12.36;36.57
24996;BME280;13016;52.162;21.034;2023-03-16T12:08:18;100950.73;;;12.26;36.49
24996;BME280;13016;52.162;21.034;2023-03-16T12:11:38;100950.42;;;11.86;36.69
24996;BME280;13016;52.162;21.034;2023-03-16T12:19:50;100954.48;;;12.04;36.72
24996;BME280;13016;52.162;21.034;2023-03-16T12:28:27;100952.76;;;12.13;36.54
24996;BME280;13016;52.162;21.034;2023-03-16T12:46:22;100957.19;;;12.42;37.34
24996;BME280;13016;52.162;21.034;2023-03-16T12:50:11;100956.89;;;12.14;37.59
24996;BME280;13016;52.162;21.034;2023-03-16T12:57:23;100966.13;;;12.32;37.49
24996;BME280;13016;52.162;21.034;2023-03-16T13:00:42;100965.92;;;12.35;37.07
24996;BME280;13016;52.162;21.034;2023-03-16T13:04:53;100966.70;;;12.28;37.25
24996;BME280;13016;52.162;21.034;2023-03-16T13:32:01;100973.61;;;12.46;36.31
24996;BME280;13016;52.162;21.034;2023-03-16T13:35:27;100974.39;;;12.30;35.92
24996;BME280;13016;52.162;21.034;2023-03-16T14:03:39;100978.09;;;12.83;33.27
24996;BME280;13016;52.162;21.034;2023-03-16T14:30:12;100979.82;;;13.27;32.42
24996;BME280;13016;52.162;21.034;2023-03-16T14:40:31;100984.80;;;12.75;34.56
24996;BME280;13016;52.162;21.034;2023-03-16T14:44:05;100985.60;;;12.85;34.48
24996;BME280;13016;52.162;21.034;2023-03-16T14:57:58;100986.06;;;13.26;33.76
24996;BME280;13016;52.162;21.034;2023-03-16T15:00:53;100991.94;;;13.29;33.58
24996;BME280;13016;52.162;21.034;2023-03-16T15:04:31;100990.67;;;13.03;33.89
24996;BME280;13016;52.162;21.034;2023-03-16T15:08:13;100995.14;;;12.76;34.54
24996;BME280;13016;52.162;21.034;2023-03-16T15:11:59;101000.29;;;12.70;34.58
24996;BME280;13016;52.162;21.034;2023-03-16T15:15:22;100999.41;;;12.52;35.14
24996;BME280;13016;52.162;21.034;2023-03-16T15:17:53;101002.39;;;12.23;35.94
24996;BME280;13016;52.162;21.034;2023-03-16T15:20:32;101004.05;;;12.16;36.42
24996;BME280;13016;52.162;21.034;2023-03-16T15:25:46;101002.39;;;11.80;37.18
24996;BME280;13016;52.162;21.034;2023-03-16T15:28:34;101007.56;;;11.94;37.05
24996;BME280;13016;52.162;21.034;2023-03-16T15:31:40;101003.27;;;12.05;36.82
24996;BME280;13016;52.162;21.034;2023-03-16T15:35:09;101006.42;;;11.90;36.99
24996;BME280;13016;52.162;21.034;2023-03-16T15:37:44;101008.67;;;11.65;37.12
24996;BME280;13016;52.162;21.034;2023-03-16T15:40:26;101009.41;;;11.68;36.88
24996;BME280;13016;52.162;21.034;2023-03-16T15:43:01;101012.95;;;11.71;36.57
24996;BME280;13016;52.162;21.034;2023-03-16T15:49:08;101005.91;;;11.74;35.27
24996;BME280;13016;52.162;21.034;2023-03-16T15:51:42;101007.40;;;11.85;35.37
24996;BME280;13016;52.162;21.034;2023-03-16T15:57:03;101010.95;;;11.78;34.81
24996;BME280;13016;52.162;21.034;2023-03-16T16:20:31;101030.42;;;12.21;33.23
24996;BME280;13016;52.162;21.034;2023-03-16T16:23:02;101037.34;;;12.06;33.85
24996;BME280;13016;52.162;21.034;2023-03-16T16:25:35;101039.52;;;11.73;35.03
24996;BME280;13016;52.162;21.034;2023-03-16T16:28:05;101037.56;;;11.60;35.84
24996;BME280;13016;52.162;21.034;2023-03-16T16:36:20;101047.86;;;11.20;37.24
24996;BME280;13016;52.162;21.034;2023-03-16T16:44:29;101054.55;;;11.04;37.37
24996;BME280;13016;52.162;21.034;2023-03-16T16:47:22;101056.44;;;10.85;37.54
24996;BME280;13016;52.162;21.034;2023-03-16T17:00:55;101072.53;;;11.01;36.99
24996;BME280;13016;52.162;21.034;2023-03-16T17:06:39;101076.05;;;10.88;37.35
24996;BME280;13016;52.162;21.034;2023-03-16T17:20:29;101083.39;;;10.51;39.76
24996;BME280;13016;52.162;21.034;2023-03-16T17:23:25;101083.77;;;10.51;39.99
24996;BME280;13016;52.162;21.034;2023-03-16T17:28:39;101083.92;;;10.47;40.22
24996;BME280;13016;52.162;21.034;2023-03-16T17:47:38;101111.89;;;9.89;41.91
24996;BME280;13016;52.162;21.034;2023-03-16T17:50:49;101114.99;;;9.87;42.11
24996;BME280;13016;52.162;21.034;2023-03-16T17:58:38;101126.04;;;9.77;42.48
24996;BME280;13016;52.162;21.034;2023-03-16T18:01:11;101124.70;;;9.71;42.51
24996;BME280;13016;52.162;21.034;2023-03-16T18:07:32;101129.74;;;9.84;42.33
24996;BME280;13016;52.162;21.034;2023-03-16T18:51:07;101158.94;;;10.64;40.79
24996;BME280;13016;52.162;21.034;2023-03-16T18:54:38;101161.25;;;10.34;41.40
24996;BME280;13016;52.162;21.034;2023-03-16T18:57:15;101163.58;;;10.15;41.75
24996;BME280;13016;52.162;21.034;2023-03-16T19:05:02;101174.09;;;9.86;42.45
24996;BME280;13016;52.162;21.034;2023-03-16T19:07:34;101174.16;;;9.77;42.58
24996;BME280;13016;52.162;21.034;2023-03-16T19:10:04;101180.04;;;9.71;42.91
24996;BME280;13016;52.162;21.034;2023-03-16T19:12:30;101176.55;;;9.70;42.99
24996;BME280;13016;52.162;21.034;2023-03-16T19:14:56;101172.32;;;9.71;43.04
24996;BME280;13016;52.162;21.034;2023-03-16T19:17:28;101168.56;;;9.68;43.10
24996;BME280;13016;52.162;21.034;2023-03-16T19:19:54;101174.34;;;9.68;43.14
24996;BME280;13016;52.162;21.034;2023-03-16T19:22:20;101180.10;;;9.70;43.08
24996;BME280;13016;52.162;21.034;2023-03-16T19:24:51;101176.31;;;9.68;43.13
24996;BME280;13016;52.162;21.034;2023-03-16T19:27:30;101178.67;;;9.66;43.11
24996;BME280;13016;52.162;21.034;2023-03-16T19:29:58;101184.61;;;9.59;43.34
24996;BME280;13016;52.162;21.034;2023-03-16T19:35:18;101191.61;;;9.36;44.05
24996;BME280;13016;52.162;21.034;2023-03-16T19:40:36;101199.29;;;9.42;43.92
24996;BME280;13016;52.162;21.034;2023-03-16T19:45:44;101205.42;;;9.39;44.28
24996;BME280;13016;52.162;21.034;2023-03-16T19:48:18;101205.80;;;9.42;44.27
24996;BME280;13016;52.162;21.034;2023-03-16T19:50:50;101206.95;;;9.36;44.46
24996;BME280;13016;52.162;21.034;2023-03-16T19:53:35;101207.28;;;9.33;44.82
24996;BME280;13016;52.162;21.034;2023-03-16T19:56:01;101203.04;;;9.29;44.94
24996;BME280;13016;52.162;21.034;2023-03-16T19:58:37;101204.48;;;9.28;44.97
24996;BME280;13016;52.162;21.034;2023-03-16T20:01:16;101207.79;;;9.25;45.04
24996;BME280;13016;52.162;21.034;2023-03-16T20:03:44;101203.34;;;9.09;45.52
24996;BME280;13016;52.162;21.034;2023-03-16T20:06:19;101209.56;;;9.12;45.67
24996;BME280;13016;52.162;21.034;2023-03-16T20:08:50;101209.29;;;9.22;45.88
24996;BME280;13016;52.162;21.034;2023-03-16T20:11:36;101210.55;;;9.30;45.77
24996;BME280;13016;52.162;21.034;2023-03-16T20:14:13;101214.39;;;9.06;46.18
24996;BME280;13016;52.162;21.034;2023-03-16T20:16:42;101215.52;;;8.96;46.53
24996;BME280;13016;52.162;21.034;2023-03-16T20:19:12;101215.29;;;8.84;46.68
24996;BME280;13016;52.162;21.034;2023-03-16T20:21:38;101214.98;;;8.79;46.90
24996;BME280;13016;52.162;21.034;2023-03-16T20:24:34;101214.02;;;8.81;46.78
24996;BME280;13016;52.162;21.034;2023-03-16T20:32:39;101220.21;;;8.84;46.36
24996;BME280;13016;52.162;21.034;2023-03-16T20:35:16;101215.07;;;8.76;46.49
24996;BME280;13016;52.162;21.034;2023-03-16T20:37:44;101214.86;;;8.73;46.52
24996;BME280;13016;52.162;21.034;2023-03-16T20:40:14;101215.26;;;8.72;46.62
24996;BME280;13016;52.162;21.034;2023-03-16T20:42:41;101210.73;;;8.96;46.36
24996;BME280;13016;52.162;21.034;2023-03-16T20:45:18;101213.67;;;8.93;45.95
24996;BME280;13016;52.162;21.034;2023-03-16T20:47:45;101215.33;;;8.88;46.35
24996;BME280;13016;52.162;21.034;2023-03-16T20:50:28;101216.72;;;8.92;46.39
24996;BME280;13016;52.162;21.034;2023-03-16T20:53:14;101215.77;;;9.07;46.34
24996;BME280;13016;52.162;21.034;2023-03-16T20:55:39;101219.31;;;9.31;45.89
24996;BME280;13016;52.162;21.034;2023-03-16T20:58:28;101222.45;;;9.27;45.77
24996;BME280;13016;52.162;21.034;2023-03-16T21:00:54;101220.14;;;9.28;45.99
24996;BME280;13016;52.162;21.034;2023-03-16T21:03:22;101221.39;;;9.32;45.80
24996;BME280;13016;52.162;21.034;2023-03-16T21:05:53;101223.20;;;9.43;45.74
24996;BME280;13016;52.162;21.034;2023-03-16T21:08:19;101223.92;;;9.55;45.48
24996;BME280;13016;52.162;21.034;2023-03-16T21:10:49;101220.60;;;9.50;45.14